sensor_id;sensor_type;location;lat;lon;timestamp;temperature;humidity
1429;DHT22;708;51.442;7.016;2023-05-29T00:00:49;15.00;1.00
1429;DHT22;708;51.442;7.016;2023-05-29T00:03:17;14.90;1.00
1429;DHT22;708;51.442;7.016;2023-05-29T00:05:45;14.80;1.00
1429;DHT22;708;51.442;7.016;2023-05-29T00:08:12;14.70;99.90
1429;DHT22;708;51.442;7.016;2023-05-29T00:10:39;14.70;99.90
1429;DHT22;708;51.442;7.016;2023-05-29T00:13:05;14.70;1.00
1429;DHT22;708;51.442;7.016;2023-05-29T00:15:33;14.60;99.90
1429;DHT22;708;51.442;7.016;2023-05-29T00:17:59;14.60;99.90
1429;DHT22;708;51.442;7.016;2023-05-29T00:20:26;14.60;1.00
1429;DHT22;708;51.442;7.016;2023-05-29T00:22:55;14.50;1.00
1429;DHT22;708;51.442;7.016;2023-05-29T00:25:22;14.50;99.90
1429;DHT22;708;51.442;7.016;2023-05-29T00:27:48;14.50;99.90
1429;DHT22;708;51.442;7.016;2023-05-29T00:30:15;14.50;99.90
1429;DHT22;708;51.442;7.016;2023-05-29T00:32:42;14.40;1.00
1429;DHT22;708;51.442;7.016;2023-05-29T00:35:09;14.30;91.60
1429;DHT22;708;51.442;7.016;2023-05-29T00:37:36;14.30;99.90
1429;DHT22;708;51.442;7.016;2023-05-29T00:40:05;14.20;99.90
1429;DHT22;708;51.442;7.016;2023-05-29T00:42:32;14.20;99.90
1429;DHT22;708;51.442;7.016;2023-05-29T00:44:59;14.20;1.00
1429;DHT22;708;51.442;7.016;2023-05-29T00:47:26;14.10;99.90
1429;DHT22;708;51.442;7.016;2023-05-29T00:49:53;14.00;99.90
1429;DHT22;708;51.442;7.016;2023-05-29T00:52:21;14.00;1.00
1429;DHT22;708;51.442;7.016;2023-05-29T00:54:49;13.90;99.90
1429;DHT22;708;51.442;7.016;2023-05-29T00:57:18;13.80;99.90
1429;DHT22;708;51.442;7.016;2023-05-29T00:59:46;13.80;99.90
1429;DHT22;708;51.442;7.016;2023-05-29T01:02:14;13.70;1.00
1429;DHT22;708;51.442;7.016;2023-05-29T01:04:42;13.70;68.90
1429;DHT22;708;51.442;7.016;2023-05-29T01:07:10;13.70;99.90
1429;DHT22;708;51.442;7.016;2023-05-29T01:09:37;13.60;99.90
1429;DHT22;708;51.442;7.016;2023-05-29T01:12:13;13.50;99.90
1429;DHT22;708;51.442;7.016;2023-05-29T01:14:50;13.40;1.00
1429;DHT22;708;51.442;7.016;2023-05-29T01:17:24;13.40;1.00
1429;DHT22;708;51.442;7.016;2023-05-29T01:20:09;13.40;1.00
1429;DHT22;708;51.442;7.016;2023-05-29T01:22:58;13.30;1.00
1429;DHT22;708;51.442;7.016;2023-05-29T01:25:41;13.20;27.20
1429;DHT22;708;51.442;7.016;2023-05-29T01:28:11;13.20;88.20
1429;DHT22;708;51.442;7.016;2023-05-29T01:30:40;13.20;99.90
1429;DHT22;708;51.442;7.016;2023-05-29T01:33:08;13.10;99.90
1429;DHT22;708;51.442;7.016;2023-05-29T01:35:38;13.10;99.90
1429;DHT22;708;51.442;7.016;2023-05-29T01:38:05;13.10;99.90
1429;DHT22;708;51.442;7.016;2023-05-29T01:40:32;13.10;99.90
1429;DHT22;708;51.442;7.016;2023-05-29T01:42:59;13.00;99.90
1429;DHT22;708;51.442;7.016;2023-05-29T01:45:28;13.00;99.90
1429;DHT22;708;51.442;7.016;2023-05-29T01:47:55;12.80;99.90
1429;DHT22;708;51.442;7.016;2023-05-29T01:50:23;12.80;99.90
1429;DHT22;708;51.442;7.016;2023-05-29T01:52:50;12.80;99.90
1429;DHT22;708;51.442;7.016;2023-05-29T01:55:17;12.70;99.90
1429;DHT22;708;51.442;7.016;2023-05-29T01:57:45;12.60;99.90
1429;DHT22;708;51.442;7.016;2023-05-29T02:00:12;12.50;99.90
1429;DHT22;708;51.442;7.016;2023-05-29T02:02:41;12.50;99.90
1429;DHT22;708;51.442;7.016;2023-05-29T02:05:10;12.40;99.90
1429;DHT22;708;51.442;7.016;2023-05-29T02:07:37;12.30;99.90
1429;DHT22;708;51.442;7.016;2023-05-29T02:10:04;12.30;99.90
1429;DHT22;708;51.442;7.016;2023-05-29T02:12:31;12.20;99.90
1429;DHT22;708;51.442;7.016;2023-05-29T02:14:58;12.20;99.90
1429;DHT22;708;51.442;7.016;2023-05-29T02:17:24;12.10;99.90
1429;DHT22;708;51.442;7.016;2023-05-29T02:19:53;12.10;99.90
1429;DHT22;708;51.442;7.016;2023-05-29T02:22:19;12.00;99.90
1429;DHT22;708;51.442;7.016;2023-05-29T02:24:46;12.00;99.90
1429;DHT22;708;51.442;7.016;2023-05-29T02:27:13;12.00;99.90
1429;DHT22;708;51.442;7.016;2023-05-29T02:29:40;11.90;99.90
1429;DHT22;708;51.442;7.016;2023-05-29T02:32:07;11.90;99.90
1429;DHT22;708;51.442;7.016;2023-05-29T02:34:33;11.80;99.90
1429;DHT22;708;51.442;7.016;2023-05-29T02:37:01;11.80;99.90
1429;DHT22;708;51.442;7.016;2023-05-29T02:39:29;11.80;99.90
1429;DHT22;708;51.442;7.016;2023-05-29T02:41:55;11.80;99.90
1429;DHT22;708;51.442;7.016;2023-05-29T02:44:22;11.80;99.90
1429;DHT22;708;51.442;7.016;2023-05-29T02:46:49;11.70;99.90
1429;DHT22;708;51.442;7.016;2023-05-29T02:49:16;11.70;99.90
1429;DHT22;708;51.442;7.016;2023-05-29T02:51:42;11.70;99.90
1429;DHT22;708;51.442;7.016;2023-05-29T02:54:10;11.70;1.00
1429;DHT22;708;51.442;7.016;2023-05-29T02:56:38;11.80;6.00
1429;DHT22;708;51.442;7.016;2023-05-29T02:59:04;11.70;99.90
1429;DHT22;708;51.442;7.016;2023-05-29T03:01:31;11.70;99.90
1429;DHT22;708;51.442;7.016;2023-05-29T03:03:59;11.60;99.90
1429;DHT22;708;51.442;7.016;2023-05-29T03:06:26;11.60;99.90
1429;DHT22;708;51.442;7.016;2023-05-29T03:08:52;11.50;99.90
1429;DHT22;708;51.442;7.016;2023-05-29T03:11:20;11.50;99.90
1429;DHT22;708;51.442;7.016;2023-05-29T03:13:48;11.50;99.90
1429;DHT22;708;51.442;7.016;2023-05-29T03:16:16;11.50;99.90
1429;DHT22;708;51.442;7.016;2023-05-29T03:18:42;11.50;99.90
1429;DHT22;708;51.442;7.016;2023-05-29T03:21:09;11.50;99.90
1429;DHT22;708;51.442;7.016;2023-05-29T03:23:36;11.50;99.90
1429;DHT22;708;51.442;7.016;2023-05-29T03:26:03;11.50;99.90
1429;DHT22;708;51.442;7.016;2023-05-29T03:28:32;11.40;99.90
1429;DHT22;708;51.442;7.016;2023-05-29T03:30:59;11.40;99.90
1429;DHT22;708;51.442;7.016;2023-05-29T03:33:26;11.40;99.90
1429;DHT22;708;51.442;7.016;2023-05-29T03:35:52;11.40;99.90
1429;DHT22;708;51.442;7.016;2023-05-29T03:38:20;11.50;99.90
1429;DHT22;708;51.442;7.016;2023-05-29T03:40:47;11.50;99.90
1429;DHT22;708;51.442;7.016;2023-05-29T03:43:14;11.50;99.90
1429;DHT22;708;51.442;7.016;2023-05-29T03:45:42;11.50;99.90
1429;DHT22;708;51.442;7.016;2023-05-29T03:48:09;11.40;99.90
1429;DHT22;708;51.442;7.016;2023-05-29T03:50:36;11.40;99.90
1429;DHT22;708;51.442;7.016;2023-05-29T03:53:02;11.40;99.90
1429;DHT22;708;51.442;7.016;2023-05-29T03:55:29;11.40;99.90
1429;DHT22;708;51.442;7.016;2023-05-29T03:57:58;11.30;99.90
1429;DHT22;708;51.442;7.016;2023-05-29T04:00:24;11.30;99.90
1429;DHT22;708;51.442;7.016;2023-05-29T04:02:54;11.40;99.90
1429;DHT22;708;51.442;7.016;2023-05-29T04:05:21;11.40;99.90
1429;DHT22;708;51.442;7.016;2023-05-29T04:07:48;11.50;99.90
1429;DHT22;708;51.442;7.016;2023-05-29T04:10:15;11.50;99.90
1429;DHT22;708;51.442;7.016;2023-05-29T04:12:41;11.50;99.90
1429;DHT22;708;51.442;7.016;2023-05-29T04:15:09;11.50;99.90
1429;DHT22;708;51.442;7.016;2023-05-29T04:17:38;11.50;99.90
1429;DHT22;708;51.442;7.016;2023-05-29T04:20:08;11.60;99.90
1429;DHT22;708;51.442;7.016;2023-05-29T04:22:35;11.60;99.90
1429;DHT22;708;51.442;7.016;2023-05-29T04:25:02;11.70;99.90
1429;DHT22;708;51.442;7.016;2023-05-29T04:27:29;11.70;99.90
1429;DHT22;708;51.442;7.016;2023-05-29T04:29:57;11.80;99.90
1429;DHT22;708;51.442;7.016;2023-05-29T04:32:25;11.80;99.90
1429;DHT22;708;51.442;7.016;2023-05-29T04:34:52;11.90;99.90
1429;DHT22;708;51.442;7.016;2023-05-29T04:37:20;12.00;99.90
1429;DHT22;708;51.442;7.016;2023-05-29T04:39:54;12.00;99.90
1429;DHT22;708;51.442;7.016;2023-05-29T04:42:21;12.10;99.90
1429;DHT22;708;51.442;7.016;2023-05-29T04:44:50;12.40;99.90
1429;DHT22;708;51.442;7.016;2023-05-29T04:47:18;12.90;99.90
1429;DHT22;708;51.442;7.016;2023-05-29T04:49:45;13.70;99.90
1429;DHT22;708;51.442;7.016;2023-05-29T04:52:14;14.40;99.90
1429;DHT22;708;51.442;7.016;2023-05-29T04:54:43;14.80;99.90
1429;DHT22;708;51.442;7.016;2023-05-29T04:57:09;15.10;99.90
1429;DHT22;708;51.442;7.016;2023-05-29T04:59:37;15.40;99.90
1429;DHT22;708;51.442;7.016;2023-05-29T05:02:04;15.60;99.90
1429;DHT22;708;51.442;7.016;2023-05-29T05:04:31;15.70;99.90
1429;DHT22;708;51.442;7.016;2023-05-29T05:06:58;16.10;99.90
1429;DHT22;708;51.442;7.016;2023-05-29T05:09:26;16.20;99.90
1429;DHT22;708;51.442;7.016;2023-05-29T05:11:54;16.20;99.90
1429;DHT22;708;51.442;7.016;2023-05-29T05:14:21;16.40;99.90
1429;DHT22;708;51.442;7.016;2023-05-29T05:16:48;16.70;99.90
1429;DHT22;708;51.442;7.016;2023-05-29T05:19:16;17.30;99.90
1429;DHT22;708;51.442;7.016;2023-05-29T05:21:43;17.60;99.90
1429;DHT22;708;51.442;7.016;2023-05-29T05:24:10;17.90;99.90
1429;DHT22;708;51.442;7.016;2023-05-29T05:26:36;18.10;99.90
1429;DHT22;708;51.442;7.016;2023-05-29T05:29:05;18.30;99.90
1429;DHT22;708;51.442;7.016;2023-05-29T05:31:31;18.60;99.90
1429;DHT22;708;51.442;7.016;2023-05-29T05:33:58;19.10;99.90
1429;DHT22;708;51.442;7.016;2023-05-29T05:36:25;19.00;99.90
1429;DHT22;708;51.442;7.016;2023-05-29T05:38:52;19.10;99.90
1429;DHT22;708;51.442;7.016;2023-05-29T05:41:19;19.10;99.90
1429;DHT22;708;51.442;7.016;2023-05-29T05:43:46;19.00;99.90
1429;DHT22;708;51.442;7.016;2023-05-29T05:46:14;19.10;99.90
1429;DHT22;708;51.442;7.016;2023-05-29T05:48:42;19.30;99.90
1429;DHT22;708;51.442;7.016;2023-05-29T05:51:09;18.90;99.90
1429;DHT22;708;51.442;7.016;2023-05-29T05:53:37;19.20;99.90
1429;DHT22;708;51.442;7.016;2023-05-29T05:56:04;19.50;99.90
1429;DHT22;708;51.442;7.016;2023-05-29T05:58:31;19.90;99.90
1429;DHT22;708;51.442;7.016;2023-05-29T06:00:58;20.70;99.90
1429;DHT22;708;51.442;7.016;2023-05-29T06:03:27;21.00;99.90
1429;DHT22;708;51.442;7.016;2023-05-29T06:05:54;21.80;99.90
1429;DHT22;708;51.442;7.016;2023-05-29T06:08:21;21.90;98.50
1429;DHT22;708;51.442;7.016;2023-05-29T06:10:48;21.90;98.30
1429;DHT22;708;51.442;7.016;2023-05-29T06:13:15;22.00;97.90
1429;DHT22;708;51.442;7.016;2023-05-29T06:15:42;22.10;97.90
1429;DHT22;708;51.442;7.016;2023-05-29T06:18:09;22.30;97.40
1429;DHT22;708;51.442;7.016;2023-05-29T06:20:37;23.40;96.10
1429;DHT22;708;51.442;7.016;2023-05-29T06:23:04;24.30;94.00
1429;DHT22;708;51.442;7.016;2023-05-29T06:25:31;24.00;93.40
1429;DHT22;708;51.442;7.016;2023-05-29T06:27:59;24.50;92.40
1429;DHT22;708;51.442;7.016;2023-05-29T06:30:26;24.50;91.00
1429;DHT22;708;51.442;7.016;2023-05-29T06:32:53;23.80;91.30
1429;DHT22;708;51.442;7.016;2023-05-29T06:35:20;23.40;91.90
1429;DHT22;708;51.442;7.016;2023-05-29T06:37:48;23.90;91.50
1429;DHT22;708;51.442;7.016;2023-05-29T06:40:15;24.00;91.20
1429;DHT22;708;51.442;7.016;2023-05-29T06:42:42;23.90;91.40
1429;DHT22;708;51.442;7.016;2023-05-29T06:45:12;24.30;90.70
1429;DHT22;708;51.442;7.016;2023-05-29T06:47:39;24.30;90.30
1429;DHT22;708;51.442;7.016;2023-05-29T06:50:07;24.80;89.00
1429;DHT22;708;51.442;7.016;2023-05-29T06:52:34;25.20;87.20
1429;DHT22;708;51.442;7.016;2023-05-29T06:55:03;24.70;87.60
1429;DHT22;708;51.442;7.016;2023-05-29T06:57:30;24.70;87.00
1429;DHT22;708;51.442;7.016;2023-05-29T06:59:56;24.70;86.80
1429;DHT22;708;51.442;7.016;2023-05-29T07:02:23;24.40;87.60
1429;DHT22;708;51.442;7.016;2023-05-29T07:04:50;24.20;87.90
1429;DHT22;708;51.442;7.016;2023-05-29T07:07:17;24.50;87.50
1429;DHT22;708;51.442;7.016;2023-05-29T07:09:44;25.00;86.20
1429;DHT22;708;51.442;7.016;2023-05-29T07:12:12;24.80;85.70
1429;DHT22;708;51.442;7.016;2023-05-29T07:14:38;24.70;86.30
1429;DHT22;708;51.442;7.016;2023-05-29T07:17:05;24.90;85.50
1429;DHT22;708;51.442;7.016;2023-05-29T07:19:32;24.60;86.00
1429;DHT22;708;51.442;7.016;2023-05-29T07:22:00;24.90;85.30
1429;DHT22;708;51.442;7.016;2023-05-29T07:24:27;25.40;84.40
1429;DHT22;708;51.442;7.016;2023-05-29T07:26:54;25.80;82.20
1429;DHT22;708;51.442;7.016;2023-05-29T07:29:22;25.30;82.10
1429;DHT22;708;51.442;7.016;2023-05-29T07:31:49;25.20;83.10
1429;DHT22;708;51.442;7.016;2023-05-29T07:34:16;25.50;82.50
1429;DHT22;708;51.442;7.016;2023-05-29T07:37:00;25.90;81.40
1429;DHT22;708;51.442;7.016;2023-05-29T07:39:28;26.80;79.80
1429;DHT22;708;51.442;7.016;2023-05-29T07:41:55;28.10;77.50
1429;DHT22;708;51.442;7.016;2023-05-29T07:44:23;28.50;73.40
1429;DHT22;708;51.442;7.016;2023-05-29T07:46:50;28.30;73.00
1429;DHT22;708;51.442;7.016;2023-05-29T07:49:16;28.40;72.20
1429;DHT22;708;51.442;7.016;2023-05-29T07:51:43;27.70;71.90
1429;DHT22;708;51.442;7.016;2023-05-29T07:54:10;27.80;72.60
1429;DHT22;708;51.442;7.016;2023-05-29T07:56:37;28.30;71.60
1429;DHT22;708;51.442;7.016;2023-05-29T07:59:06;28.30;70.90
1429;DHT22;708;51.442;7.016;2023-05-29T08:01:36;28.40;70.40
1429;DHT22;708;51.442;7.016;2023-05-29T08:04:04;27.70;70.70
1429;DHT22;708;51.442;7.016;2023-05-29T08:06:31;27.30;71.20
1429;DHT22;708;51.442;7.016;2023-05-29T08:08:59;27.40;72.10
1429;DHT22;708;51.442;7.016;2023-05-29T08:11:27;27.40;71.30
1429;DHT22;708;51.442;7.016;2023-05-29T08:13:53;26.90;71.90
1429;DHT22;708;51.442;7.016;2023-05-29T08:16:20;26.40;73.50
1429;DHT22;708;51.442;7.016;2023-05-29T08:18:49;26.40;73.20
1429;DHT22;708;51.442;7.016;2023-05-29T08:21:18;26.30;74.20
1429;DHT22;708;51.442;7.016;2023-05-29T08:23:45;26.60;73.30
1429;DHT22;708;51.442;7.016;2023-05-29T08:26:12;26.40;73.00
1429;DHT22;708;51.442;7.016;2023-05-29T08:28:39;26.20;74.30
1429;DHT22;708;51.442;7.016;2023-05-29T08:31:06;26.40;74.30
1429;DHT22;708;51.442;7.016;2023-05-29T08:33:33;26.80;72.90
1429;DHT22;708;51.442;7.016;2023-05-29T08:36:01;26.90;72.30
1429;DHT22;708;51.442;7.016;2023-05-29T08:38:28;27.00;72.50
1429;DHT22;708;51.442;7.016;2023-05-29T08:40:56;26.50;72.80
1429;DHT22;708;51.442;7.016;2023-05-29T08:43:24;26.80;72.80
1429;DHT22;708;51.442;7.016;2023-05-29T08:45:54;27.10;72.50
1429;DHT22;708;51.442;7.016;2023-05-29T08:48:23;27.40;70.60
1429;DHT22;708;51.442;7.016;2023-05-29T08:50:53;27.20;70.10
1429;DHT22;708;51.442;7.016;2023-05-29T08:53:22;27.00;71.70
1429;DHT22;708;51.442;7.016;2023-05-29T08:55:51;27.00;71.20
1429;DHT22;708;51.442;7.016;2023-05-29T08:58:18;26.70;71.50
1429;DHT22;708;51.442;7.016;2023-05-29T09:00:46;26.40;72.10
1429;DHT22;708;51.442;7.016;2023-05-29T09:03:14;25.50;73.80
1429;DHT22;708;51.442;7.016;2023-05-29T09:05:41;25.30;74.80
1429;DHT22;708;51.442;7.016;2023-05-29T09:08:08;25.10;75.30
1429;DHT22;708;51.442;7.016;2023-05-29T09:10:38;25.10;76.10
1429;DHT22;708;51.442;7.016;2023-05-29T09:13:06;25.30;75.40
1429;DHT22;708;51.442;7.016;2023-05-29T09:15:34;25.70;75.30
1429;DHT22;708;51.442;7.016;2023-05-29T09:18:04;26.20;74.30
1429;DHT22;708;51.442;7.016;2023-05-29T09:20:31;26.50;73.30
1429;DHT22;708;51.442;7.016;2023-05-29T09:22:59;26.60;72.90
1429;DHT22;708;51.442;7.016;2023-05-29T09:25:28;26.50;72.40
1429;DHT22;708;51.442;7.016;2023-05-29T09:28:00;26.20;72.90
1429;DHT22;708;51.442;7.016;2023-05-29T09:30:35;26.20;73.50
1429;DHT22;708;51.442;7.016;2023-05-29T09:33:03;26.30;73.10
1429;DHT22;708;51.442;7.016;2023-05-29T09:35:35;26.50;72.80
1429;DHT22;708;51.442;7.016;2023-05-29T09:38:02;27.10;71.80
1429;DHT22;708;51.442;7.016;2023-05-29T09:40:33;27.30;70.70
1429;DHT22;708;51.442;7.016;2023-05-29T09:43:05;27.20;70.80
1429;DHT22;708;51.442;7.016;2023-05-29T09:45:34;27.30;70.80
1429;DHT22;708;51.442;7.016;2023-05-29T09:48:02;26.70;70.30
1429;DHT22;708;51.442;7.016;2023-05-29T09:50:29;26.10;72.10
1429;DHT22;708;51.442;7.016;2023-05-29T09:52:59;26.10;72.40
1429;DHT22;708;51.442;7.016;2023-05-29T09:55:27;25.80;72.70
1429;DHT22;708;51.442;7.016;2023-05-29T09:57:54;26.10;72.70
1429;DHT22;708;51.442;7.016;2023-05-29T10:00:23;26.40;72.60
1429;DHT22;708;51.442;7.016;2023-05-29T10:02:51;26.40;72.10
1429;DHT22;708;51.442;7.016;2023-05-29T10:05:18;26.70;72.40
1429;DHT22;708;51.442;7.016;2023-05-29T10:07:47;27.10;71.00
1429;DHT22;708;51.442;7.016;2023-05-29T10:10:18;26.80;70.10
1429;DHT22;708;51.442;7.016;2023-05-29T10:12:48;26.50;71.10
1429;DHT22;708;51.442;7.016;2023-05-29T10:15:16;26.20;71.40
1429;DHT22;708;51.442;7.016;2023-05-29T10:17:52;25.50;72.50
1429;DHT22;708;51.442;7.016;2023-05-29T10:20:22;25.30;74.10
1429;DHT22;708;51.442;7.016;2023-05-29T10:22:51;25.40;74.40
1429;DHT22;708;51.442;7.016;2023-05-29T10:25:20;25.50;74.30
1429;DHT22;708;51.442;7.016;2023-05-29T10:27:48;25.60;73.70
1429;DHT22;708;51.442;7.016;2023-05-29T10:30:21;25.50;74.00
1429;DHT22;708;51.442;7.016;2023-05-29T10:33:17;25.60;74.30
1429;DHT22;708;51.442;7.016;2023-05-29T10:35:55;25.20;74.10
1429;DHT22;708;51.442;7.016;2023-05-29T10:38:24;25.00;74.80
1429;DHT22;708;51.442;7.016;2023-05-29T10:40:51;24.20;75.80
1429;DHT22;708;51.442;7.016;2023-05-29T10:43:30;23.60;77.30
1429;DHT22;708;51.442;7.016;2023-05-29T10:45:58;23.00;79.10
1429;DHT22;708;51.442;7.016;2023-05-29T10:48:40;23.00;80.20
1429;DHT22;708;51.442;7.016;2023-05-29T10:51:07;22.50;82.10
1429;DHT22;708;51.442;7.016;2023-05-29T10:53:34;22.40;83.70
1429;DHT22;708;51.442;7.016;2023-05-29T10:56:08;22.30;84.10
1429;DHT22;708;51.442;7.016;2023-05-29T10:58:36;22.20;84.10
1429;DHT22;708;51.442;7.016;2023-05-29T11:01:04;22.30;84.20
1429;DHT22;708;51.442;7.016;2023-05-29T11:03:31;22.60;85.00
1429;DHT22;708;51.442;7.016;2023-05-29T11:06:01;22.60;84.30
1429;DHT22;708;51.442;7.016;2023-05-29T11:08:33;22.40;84.30
1429;DHT22;708;51.442;7.016;2023-05-29T11:11:01;22.30;84.10
1429;DHT22;708;51.442;7.016;2023-05-29T11:13:32;22.30;84.90
1429;DHT22;708;51.442;7.016;2023-05-29T11:16:35;22.10;85.60
1429;DHT22;708;51.442;7.016;2023-05-29T11:19:04;21.90;86.10
1429;DHT22;708;51.442;7.016;2023-05-29T11:21:49;21.80;86.50
1429;DHT22;708;51.442;7.016;2023-05-29T11:24:22;21.60;87.40
1429;DHT22;708;51.442;7.016;2023-05-29T11:26:51;21.50;88.30
1429;DHT22;708;51.442;7.016;2023-05-29T11:29:21;21.40;88.70
1429;DHT22;708;51.442;7.016;2023-05-29T11:31:53;21.30;89.80
1429;DHT22;708;51.442;7.016;2023-05-29T11:34:22;21.50;90.20
1429;DHT22;708;51.442;7.016;2023-05-29T11:36:53;21.60;90.20
1429;DHT22;708;51.442;7.016;2023-05-29T11:39:21;21.60;90.10
1429;DHT22;708;51.442;7.016;2023-05-29T11:41:50;21.50;90.00
1429;DHT22;708;51.442;7.016;2023-05-29T11:44:18;21.30;90.20
1429;DHT22;708;51.442;7.016;2023-05-29T11:46:45;21.30;90.60
1429;DHT22;708;51.442;7.016;2023-05-29T11:49:12;21.40;90.60
1429;DHT22;708;51.442;7.016;2023-05-29T11:51:43;21.50;90.40
1429;DHT22;708;51.442;7.016;2023-05-29T11:54:13;21.70;90.40
1429;DHT22;708;51.442;7.016;2023-05-29T11:56:47;21.90;90.10
1429;DHT22;708;51.442;7.016;2023-05-29T11:59:14;22.20;90.20
1429;DHT22;708;51.442;7.016;2023-05-29T12:01:41;22.10;88.90
1429;DHT22;708;51.442;7.016;2023-05-29T12:04:14;21.90;89.20
1429;DHT22;708;51.442;7.016;2023-05-29T12:06:42;21.90;90.20
1429;DHT22;708;51.442;7.016;2023-05-29T12:09:24;21.90;90.10
1429;DHT22;708;51.442;7.016;2023-05-29T12:11:51;21.80;90.10
1429;DHT22;708;51.442;7.016;2023-05-29T12:14:22;21.80;90.40
1429;DHT22;708;51.442;7.016;2023-05-29T12:16:49;21.80;90.60
1429;DHT22;708;51.442;7.016;2023-05-29T12:19:16;21.70;90.50
1429;DHT22;708;51.442;7.016;2023-05-29T12:21:44;21.40;91.10
1429;DHT22;708;51.442;7.016;2023-05-29T12:24:11;21.30;91.50
1429;DHT22;708;51.442;7.016;2023-05-29T12:26:41;21.20;91.80
1429;DHT22;708;51.442;7.016;2023-05-29T12:29:08;21.30;91.80
1429;DHT22;708;51.442;7.016;2023-05-29T12:31:35;21.40;92.00
1429;DHT22;708;51.442;7.016;2023-05-29T12:34:07;21.60;91.70
1429;DHT22;708;51.442;7.016;2023-05-29T12:36:34;21.80;91.50
1429;DHT22;708;51.442;7.016;2023-05-29T12:39:06;21.90;91.40
1429;DHT22;708;51.442;7.016;2023-05-29T12:41:34;22.20;91.40
1429;DHT22;708;51.442;7.016;2023-05-29T12:44:04;22.50;91.30
1429;DHT22;708;51.442;7.016;2023-05-29T12:46:40;22.40;90.50
1429;DHT22;708;51.442;7.016;2023-05-29T12:49:12;22.40;90.90
1429;DHT22;708;51.442;7.016;2023-05-29T12:51:41;22.40;90.60
1429;DHT22;708;51.442;7.016;2023-05-29T12:54:09;22.40;90.50
1429;DHT22;708;51.442;7.016;2023-05-29T12:56:37;22.30;90.50
1429;DHT22;708;51.442;7.016;2023-05-29T12:59:07;22.50;90.30
1429;DHT22;708;51.442;7.016;2023-05-29T13:01:34;22.40;90.20
1429;DHT22;708;51.442;7.016;2023-05-29T13:04:01;22.40;90.30
1429;DHT22;708;51.442;7.016;2023-05-29T13:06:29;22.50;90.20
1429;DHT22;708;51.442;7.016;2023-05-29T13:08:56;22.30;90.00
1429;DHT22;708;51.442;7.016;2023-05-29T13:11:23;22.30;90.20
1429;DHT22;708;51.442;7.016;2023-05-29T13:13:51;22.20;90.20
1429;DHT22;708;51.442;7.016;2023-05-29T13:16:19;22.30;90.20
1429;DHT22;708;51.442;7.016;2023-05-29T13:18:46;22.20;90.10
1429;DHT22;708;51.442;7.016;2023-05-29T13:21:12;22.20;90.00
1429;DHT22;708;51.442;7.016;2023-05-29T13:23:39;22.20;90.20
1429;DHT22;708;51.442;7.016;2023-05-29T13:26:13;22.20;90.00
1429;DHT22;708;51.442;7.016;2023-05-29T13:28:47;22.20;90.00
1429;DHT22;708;51.442;7.016;2023-05-29T13:31:14;22.00;90.20
1429;DHT22;708;51.442;7.016;2023-05-29T13:33:42;22.10;90.10
1429;DHT22;708;51.442;7.016;2023-05-29T13:36:09;22.10;90.40
1429;DHT22;708;51.442;7.016;2023-05-29T13:38:36;22.20;90.10
1429;DHT22;708;51.442;7.016;2023-05-29T13:41:03;22.20;90.30
1429;DHT22;708;51.442;7.016;2023-05-29T13:43:30;22.20;90.40
1429;DHT22;708;51.442;7.016;2023-05-29T13:45:57;22.10;90.50
1429;DHT22;708;51.442;7.016;2023-05-29T13:48:24;22.10;90.50
1429;DHT22;708;51.442;7.016;2023-05-29T13:50:52;22.00;90.60
1429;DHT22;708;51.442;7.016;2023-05-29T13:53:19;21.90;90.60
1429;DHT22;708;51.442;7.016;2023-05-29T13:55:46;22.00;90.60
1429;DHT22;708;51.442;7.016;2023-05-29T13:58:12;22.00;91.00
1429;DHT22;708;51.442;7.016;2023-05-29T14:00:39;22.00;90.40
1429;DHT22;708;51.442;7.016;2023-05-29T14:03:06;22.00;90.60
1429;DHT22;708;51.442;7.016;2023-05-29T14:05:33;22.10;90.40
1429;DHT22;708;51.442;7.016;2023-05-29T14:08:02;22.20;89.50
1429;DHT22;708;51.442;7.016;2023-05-29T14:10:29;22.10;89.80
1429;DHT22;708;51.442;7.016;2023-05-29T14:12:55;22.00;90.10
1429;DHT22;708;51.442;7.016;2023-05-29T14:15:22;22.00;90.00
1429;DHT22;708;51.442;7.016;2023-05-29T14:17:49;22.10;89.40
1429;DHT22;708;51.442;7.016;2023-05-29T14:20:16;22.30;88.90
1429;DHT22;708;51.442;7.016;2023-05-29T14:22:43;22.30;88.80
1429;DHT22;708;51.442;7.016;2023-05-29T14:25:11;22.20;88.70
1429;DHT22;708;51.442;7.016;2023-05-29T14:27:37;22.10;88.30
1429;DHT22;708;51.442;7.016;2023-05-29T14:30:06;21.90;88.60
1429;DHT22;708;51.442;7.016;2023-05-29T14:32:33;21.80;89.80
1429;DHT22;708;51.442;7.016;2023-05-29T14:35:00;21.80;89.20
1429;DHT22;708;51.442;7.016;2023-05-29T14:37:28;21.50;89.60
1429;DHT22;708;51.442;7.016;2023-05-29T14:39:55;21.50;89.80
1429;DHT22;708;51.442;7.016;2023-05-29T14:42:24;21.40;90.20
1429;DHT22;708;51.442;7.016;2023-05-29T14:44:50;21.50;89.30
1429;DHT22;708;51.442;7.016;2023-05-29T14:47:17;21.60;89.90
1429;DHT22;708;51.442;7.016;2023-05-29T14:49:44;21.60;89.40
1429;DHT22;708;51.442;7.016;2023-05-29T14:52:11;21.40;89.00
1429;DHT22;708;51.442;7.016;2023-05-29T14:54:38;21.40;88.40
1429;DHT22;708;51.442;7.016;2023-05-29T14:57:05;21.40;88.50
1429;DHT22;708;51.442;7.016;2023-05-29T14:59:33;21.30;88.80
1429;DHT22;708;51.442;7.016;2023-05-29T15:02:00;21.40;88.70
1429;DHT22;708;51.442;7.016;2023-05-29T15:04:27;21.30;88.20
1429;DHT22;708;51.442;7.016;2023-05-29T15:06:53;21.30;87.90
1429;DHT22;708;51.442;7.016;2023-05-29T15:09:21;21.20;87.60
1429;DHT22;708;51.442;7.016;2023-05-29T15:11:48;21.10;88.00
1429;DHT22;708;51.442;7.016;2023-05-29T15:14:15;21.10;88.20
1429;DHT22;708;51.442;7.016;2023-05-29T15:16:44;21.20;88.60
1429;DHT22;708;51.442;7.016;2023-05-29T15:19:10;21.30;88.20
1429;DHT22;708;51.442;7.016;2023-05-29T15:21:37;21.30;87.50
1429;DHT22;708;51.442;7.016;2023-05-29T15:24:04;21.30;87.50
1429;DHT22;708;51.442;7.016;2023-05-29T15:26:31;21.20;87.80
1429;DHT22;708;51.442;7.016;2023-05-29T15:29:00;21.20;87.90
1429;DHT22;708;51.442;7.016;2023-05-29T15:31:27;21.30;88.20
1429;DHT22;708;51.442;7.016;2023-05-29T15:33:56;21.30;86.50
1429;DHT22;708;51.442;7.016;2023-05-29T15:36:23;21.20;85.50
1429;DHT22;708;51.442;7.016;2023-05-29T15:38:53;21.30;86.10
1429;DHT22;708;51.442;7.016;2023-05-29T15:41:20;21.40;86.50
1429;DHT22;708;51.442;7.016;2023-05-29T15:43:46;21.40;86.10
1429;DHT22;708;51.442;7.016;2023-05-29T15:46:14;21.30;86.30
1429;DHT22;708;51.442;7.016;2023-05-29T15:48:41;21.30;86.10
1429;DHT22;708;51.442;7.016;2023-05-29T15:51:09;21.40;86.00
1429;DHT22;708;51.442;7.016;2023-05-29T15:53:36;21.50;86.00
1429;DHT22;708;51.442;7.016;2023-05-29T15:56:03;21.40;86.10
1429;DHT22;708;51.442;7.016;2023-05-29T15:58:30;21.30;86.10
1429;DHT22;708;51.442;7.016;2023-05-29T16:00:56;21.10;85.90
1429;DHT22;708;51.442;7.016;2023-05-29T16:03:23;21.00;85.60
1429;DHT22;708;51.442;7.016;2023-05-29T16:05:50;21.00;84.60
1429;DHT22;708;51.442;7.016;2023-05-29T16:08:18;20.90;84.60
1429;DHT22;708;51.442;7.016;2023-05-29T16:10:45;20.90;83.00
1429;DHT22;708;51.442;7.016;2023-05-29T16:13:12;21.00;81.80
1429;DHT22;708;51.442;7.016;2023-05-29T16:15:39;20.90;80.80
1429;DHT22;708;51.442;7.016;2023-05-29T16:18:06;20.90;79.70
1429;DHT22;708;51.442;7.016;2023-05-29T16:20:33;20.80;78.80
1429;DHT22;708;51.442;7.016;2023-05-29T16:23:00;20.80;78.90
1429;DHT22;708;51.442;7.016;2023-05-29T16:25:28;20.80;77.50